sensor_id;sensor_type;location;lat;lon;timestamp;temperature;humidity
14144;DHT22;7152;48.348;10.980;2022-08-25T00:01:42;18.20;99.90
14144;DHT22;7152;48.348;10.980;2022-08-25T00:04:09;18.20;99.90
14144;DHT22;7152;48.348;10.980;2022-08-25T00:06:38;18.20;99.90
14144;DHT22;7152;48.348;10.980;2022-08-25T00:09:05;18.10;99.90
14144;DHT22;7152;48.348;10.980;2022-08-25T00:11:33;18.10;99.90
14144;DHT22;7152;48.348;10.980;2022-08-25T00:14:03;18.10;99.90
14144;DHT22;7152;48.348;10.980;2022-08-25T00:16:29;18.10;99.90
14144;DHT22;7152;48.348;10.980;2022-08-25T00:18:58;18.10;99.90
14144;DHT22;7152;48.348;10.980;2022-08-25T00:21:25;18.10;99.90
14144;DHT22;7152;48.348;10.980;2022-08-25T00:23:51;18.10;99.90
14144;DHT22;7152;48.348;10.980;2022-08-25T00:26:18;18.00;99.90
14144;DHT22;7152;48.348;10.980;2022-08-25T00:28:44;18.00;99.90
14144;DHT22;7152;48.348;10.980;2022-08-25T00:31:15;18.00;99.90
14144;DHT22;7152;48.348;10.980;2022-08-25T00:33:43;18.00;99.90
14144;DHT22;7152;48.348;10.980;2022-08-25T00:36:08;17.90;99.90
14144;DHT22;7152;48.348;10.980;2022-08-25T00:38:37;17.90;99.90
14144;DHT22;7152;48.348;10.980;2022-08-25T00:41:03;17.90;99.90
14144;DHT22;7152;48.348;10.980;2022-08-25T00:46:08;17.80;99.90
14144;DHT22;7152;48.348;10.980;2022-08-25T00:48:34;17.80;99.90
14144;DHT22;7152;48.348;10.980;2022-08-25T00:51:01;17.70;99.90
14144;DHT22;7152;48.348;10.980;2022-08-25T00:53:28;17.70;99.90
14144;DHT22;7152;48.348;10.980;2022-08-25T00:55:55;17.70;99.90
14144;DHT22;7152;48.348;10.980;2022-08-25T00:58:25;17.70;99.90
14144;DHT22;7152;48.348;10.980;2022-08-25T01:00:54;17.70;99.90
14144;DHT22;7152;48.348;10.980;2022-08-25T01:03:21;17.70;99.90
14144;DHT22;7152;48.348;10.980;2022-08-25T01:05:48;17.60;99.90
14144;DHT22;7152;48.348;10.980;2022-08-25T01:08:15;17.60;99.90
14144;DHT22;7152;48.348;10.980;2022-08-25T01:10:46;17.60;99.90
14144;DHT22;7152;48.348;10.980;2022-08-25T01:13:23;17.60;99.90
14144;DHT22;7152;48.348;10.980;2022-08-25T01:15:53;17.50;99.90
14144;DHT22;7152;48.348;10.980;2022-08-25T01:18:20;17.50;99.90
14144;DHT22;7152;48.348;10.980;2022-08-25T01:20:53;17.50;99.90
14144;DHT22;7152;48.348;10.980;2022-08-25T01:23:20;17.50;99.90
14144;DHT22;7152;48.348;10.980;2022-08-25T01:26:03;17.50;99.90
14144;DHT22;7152;48.348;10.980;2022-08-25T01:28:30;17.50;99.90
14144;DHT22;7152;48.348;10.980;2022-08-25T01:30:56;17.40;99.90
14144;DHT22;7152;48.348;10.980;2022-08-25T01:33:22;17.40;99.90
14144;DHT22;7152;48.348;10.980;2022-08-25T01:35:47;17.40;99.90
14144;DHT22;7152;48.348;10.980;2022-08-25T01:38:13;17.30;99.90
14144;DHT22;7152;48.348;10.980;2022-08-25T01:40:40;17.40;99.90
14144;DHT22;7152;48.348;10.980;2022-08-25T01:45:45;17.30;99.90
14144;DHT22;7152;48.348;10.980;2022-08-25T01:48:12;17.30;99.90
14144;DHT22;7152;48.348;10.980;2022-08-25T01:50:39;17.30;99.90
14144;DHT22;7152;48.348;10.980;2022-08-25T01:55:43;17.30;99.90
14144;DHT22;7152;48.348;10.980;2022-08-25T01:58:21;17.30;99.90
14144;DHT22;7152;48.348;10.980;2022-08-25T02:00:48;17.30;99.90
14144;DHT22;7152;48.348;10.980;2022-08-25T02:03:15;17.30;99.90
14144;DHT22;7152;48.348;10.980;2022-08-25T02:05:41;17.20;99.90
14144;DHT22;7152;48.348;10.980;2022-08-25T02:08:07;17.20;99.90
14144;DHT22;7152;48.348;10.980;2022-08-25T02:10:32;17.20;99.90
14144;DHT22;7152;48.348;10.980;2022-08-25T02:12:58;17.20;99.90
14144;DHT22;7152;48.348;10.980;2022-08-25T02:15:25;17.20;99.90
14144;DHT22;7152;48.348;10.980;2022-08-25T02:17:50;17.20;99.90
14144;DHT22;7152;48.348;10.980;2022-08-25T02:20:17;17.10;99.90
14144;DHT22;7152;48.348;10.980;2022-08-25T02:22:43;17.10;99.90
14144;DHT22;7152;48.348;10.980;2022-08-25T02:25:09;17.10;99.90
14144;DHT22;7152;48.348;10.980;2022-08-25T02:27:35;17.10;99.90
14144;DHT22;7152;48.348;10.980;2022-08-25T02:30:01;17.00;99.90
14144;DHT22;7152;48.348;10.980;2022-08-25T02:32:27;17.00;99.90
14144;DHT22;7152;48.348;10.980;2022-08-25T02:34:53;17.00;99.90
14144;DHT22;7152;48.348;10.980;2022-08-25T02:37:19;17.00;99.90
14144;DHT22;7152;48.348;10.980;2022-08-25T02:39:45;16.90;99.90
14144;DHT22;7152;48.348;10.980;2022-08-25T02:42:11;16.90;99.90
14144;DHT22;7152;48.348;10.980;2022-08-25T02:44:36;16.90;99.90
14144;DHT22;7152;48.348;10.980;2022-08-25T02:47:02;16.90;99.90
14144;DHT22;7152;48.348;10.980;2022-08-25T02:49:28;16.90;99.90
14144;DHT22;7152;48.348;10.980;2022-08-25T02:51:54;16.80;99.90
14144;DHT22;7152;48.348;10.980;2022-08-25T02:54:20;16.80;99.90
14144;DHT22;7152;48.348;10.980;2022-08-25T02:56:47;16.80;99.90
14144;DHT22;7152;48.348;10.980;2022-08-25T02:59:14;16.80;99.90
14144;DHT22;7152;48.348;10.980;2022-08-25T03:01:42;16.80;99.90
14144;DHT22;7152;48.348;10.980;2022-08-25T03:04:08;16.80;99.90
14144;DHT22;7152;48.348;10.980;2022-08-25T03:06:34;16.80;99.90
14144;DHT22;7152;48.348;10.980;2022-08-25T03:08:59;16.70;99.90
14144;DHT22;7152;48.348;10.980;2022-08-25T03:11:26;16.70;99.90
14144;DHT22;7152;48.348;10.980;2022-08-25T03:13:52;16.70;99.90
14144;DHT22;7152;48.348;10.980;2022-08-25T03:16:19;16.70;99.90
14144;DHT22;7152;48.348;10.980;2022-08-25T03:18:45;16.70;99.90
14144;DHT22;7152;48.348;10.980;2022-08-25T03:21:11;16.70;99.90
14144;DHT22;7152;48.348;10.980;2022-08-25T03:23:39;16.70;99.90
14144;DHT22;7152;48.348;10.980;2022-08-25T03:26:05;16.70;99.90
14144;DHT22;7152;48.348;10.980;2022-08-25T03:28:50;16.70;99.90
14144;DHT22;7152;48.348;10.980;2022-08-25T03:31:15;16.70;99.90
14144;DHT22;7152;48.348;10.980;2022-08-25T03:33:41;16.60;99.90
14144;DHT22;7152;48.348;10.980;2022-08-25T03:36:07;16.60;99.90
14144;DHT22;7152;48.348;10.980;2022-08-25T03:38:33;16.60;99.90
14144;DHT22;7152;48.348;10.980;2022-08-25T03:41:00;16.60;99.90
14144;DHT22;7152;48.348;10.980;2022-08-25T03:43:26;16.60;99.90
14144;DHT22;7152;48.348;10.980;2022-08-25T03:45:52;16.50;99.90
14144;DHT22;7152;48.348;10.980;2022-08-25T03:48:17;16.50;99.90
14144;DHT22;7152;48.348;10.980;2022-08-25T03:50:49;16.50;99.90
14144;DHT22;7152;48.348;10.980;2022-08-25T03:53:15;16.50;99.90
14144;DHT22;7152;48.348;10.980;2022-08-25T03:55:41;16.50;99.90
14144;DHT22;7152;48.348;10.980;2022-08-25T03:58:06;16.40;99.90
14144;DHT22;7152;48.348;10.980;2022-08-25T04:00:32;16.40;99.90
14144;DHT22;7152;48.348;10.980;2022-08-25T04:02:58;16.40;99.90
14144;DHT22;7152;48.348;10.980;2022-08-25T04:05:24;16.40;99.90
14144;DHT22;7152;48.348;10.980;2022-08-25T04:07:49;16.40;99.90
14144;DHT22;7152;48.348;10.980;2022-08-25T04:10:15;16.40;99.90
14144;DHT22;7152;48.348;10.980;2022-08-25T04:12:41;16.40;99.90
14144;DHT22;7152;48.348;10.980;2022-08-25T04:15:08;16.30;99.90
14144;DHT22;7152;48.348;10.980;2022-08-25T04:17:36;16.30;99.90
14144;DHT22;7152;48.348;10.980;2022-08-25T04:20:03;16.30;99.90
14144;DHT22;7152;48.348;10.980;2022-08-25T04:22:29;16.30;99.90
14144;DHT22;7152;48.348;10.980;2022-08-25T04:24:57;16.30;99.90
14144;DHT22;7152;48.348;10.980;2022-08-25T04:27:23;16.30;99.90
14144;DHT22;7152;48.348;10.980;2022-08-25T04:29:49;16.30;99.90
14144;DHT22;7152;48.348;10.980;2022-08-25T04:32:15;16.30;99.90
14144;DHT22;7152;48.348;10.980;2022-08-25T04:34:40;16.30;99.90
14144;DHT22;7152;48.348;10.980;2022-08-25T04:37:08;16.30;99.90
14144;DHT22;7152;48.348;10.980;2022-08-25T04:39:34;16.30;99.90
14144;DHT22;7152;48.348;10.980;2022-08-25T04:42:00;16.30;99.90
14144;DHT22;7152;48.348;10.980;2022-08-25T04:44:27;16.30;99.90
14144;DHT22;7152;48.348;10.980;2022-08-25T04:46:53;16.30;99.90
14144;DHT22;7152;48.348;10.980;2022-08-25T04:49:18;16.30;99.90
14144;DHT22;7152;48.348;10.980;2022-08-25T04:51:45;16.30;99.90
14144;DHT22;7152;48.348;10.980;2022-08-25T04:54:13;16.30;99.90
14144;DHT22;7152;48.348;10.980;2022-08-25T04:56:47;16.40;99.90
14144;DHT22;7152;48.348;10.980;2022-08-25T04:59:15;16.40;99.90
14144;DHT22;7152;48.348;10.980;2022-08-25T05:01:41;16.30;99.90
14144;DHT22;7152;48.348;10.980;2022-08-25T05:04:09;16.40;99.90
14144;DHT22;7152;48.348;10.980;2022-08-25T05:06:35;16.30;99.90
14144;DHT22;7152;48.348;10.980;2022-08-25T05:09:03;16.40;99.90
14144;DHT22;7152;48.348;10.980;2022-08-25T05:11:29;16.40;99.90
14144;DHT22;7152;48.348;10.980;2022-08-25T05:13:55;16.40;99.90
14144;DHT22;7152;48.348;10.980;2022-08-25T05:16:23;16.40;99.90
14144;DHT22;7152;48.348;10.980;2022-08-25T05:18:49;16.40;99.90
14144;DHT22;7152;48.348;10.980;2022-08-25T05:21:18;16.50;99.90
14144;DHT22;7152;48.348;10.980;2022-08-25T05:23:44;16.50;99.90
14144;DHT22;7152;48.348;10.980;2022-08-25T05:26:14;16.50;99.90
14144;DHT22;7152;48.348;10.980;2022-08-25T05:28:40;16.60;99.90
14144;DHT22;7152;48.348;10.980;2022-08-25T05:31:08;16.60;99.90
14144;DHT22;7152;48.348;10.980;2022-08-25T05:33:35;16.60;99.90
14144;DHT22;7152;48.348;10.980;2022-08-25T05:36:01;16.70;99.90
14144;DHT22;7152;48.348;10.980;2022-08-25T05:38:27;16.70;99.90
14144;DHT22;7152;48.348;10.980;2022-08-25T05:41:07;16.70;99.90
14144;DHT22;7152;48.348;10.980;2022-08-25T05:43:36;16.80;99.90
14144;DHT22;7152;48.348;10.980;2022-08-25T05:46:02;16.80;99.90
14144;DHT22;7152;48.348;10.980;2022-08-25T05:48:28;16.90;99.90
14144;DHT22;7152;48.348;10.980;2022-08-25T05:50:56;16.90;99.90
14144;DHT22;7152;48.348;10.980;2022-08-25T05:53:23;17.00;99.90
14144;DHT22;7152;48.348;10.980;2022-08-25T05:55:50;17.10;99.90
14144;DHT22;7152;48.348;10.980;2022-08-25T05:58:16;17.10;99.90
14144;DHT22;7152;48.348;10.980;2022-08-25T06:00:42;17.20;99.90
14144;DHT22;7152;48.348;10.980;2022-08-25T06:03:07;17.20;99.90
14144;DHT22;7152;48.348;10.980;2022-08-25T06:05:33;17.30;99.90
14144;DHT22;7152;48.348;10.980;2022-08-25T06:07:59;17.30;99.90
14144;DHT22;7152;48.348;10.980;2022-08-25T06:10:25;17.40;99.90
14144;DHT22;7152;48.348;10.980;2022-08-25T06:12:51;17.40;99.90
14144;DHT22;7152;48.348;10.980;2022-08-25T06:15:19;17.50;99.90
14144;DHT22;7152;48.348;10.980;2022-08-25T06:17:46;17.50;99.90
14144;DHT22;7152;48.348;10.980;2022-08-25T06:20:22;17.60;99.90
14144;DHT22;7152;48.348;10.980;2022-08-25T06:22:49;17.60;99.90
14144;DHT22;7152;48.348;10.980;2022-08-25T06:25:19;17.70;99.90
14144;DHT22;7152;48.348;10.980;2022-08-25T06:27:45;17.80;99.90
14144;DHT22;7152;48.348;10.980;2022-08-25T06:30:18;17.90;99.90
14144;DHT22;7152;48.348;10.980;2022-08-25T06:32:45;17.90;99.90
14144;DHT22;7152;48.348;10.980;2022-08-25T06:35:13;18.00;99.90
14144;DHT22;7152;48.348;10.980;2022-08-25T06:37:40;18.10;99.90
14144;DHT22;7152;48.348;10.980;2022-08-25T06:40:08;18.20;99.90
14144;DHT22;7152;48.348;10.980;2022-08-25T06:42:34;18.30;99.90
14144;DHT22;7152;48.348;10.980;2022-08-25T06:45:00;18.40;99.90
14144;DHT22;7152;48.348;10.980;2022-08-25T06:47:26;18.50;99.90
14144;DHT22;7152;48.348;10.980;2022-08-25T06:49:52;18.50;99.90
14144;DHT22;7152;48.348;10.980;2022-08-25T06:52:18;18.60;99.90
14144;DHT22;7152;48.348;10.980;2022-08-25T06:54:44;18.70;99.90
14144;DHT22;7152;48.348;10.980;2022-08-25T06:57:10;18.80;99.90
14144;DHT22;7152;48.348;10.980;2022-08-25T06:59:36;18.90;99.90
14144;DHT22;7152;48.348;10.980;2022-08-25T07:02:04;18.90;99.90
14144;DHT22;7152;48.348;10.980;2022-08-25T07:04:30;19.00;99.90
14144;DHT22;7152;48.348;10.980;2022-08-25T07:06:56;19.10;99.90
14144;DHT22;7152;48.348;10.980;2022-08-25T07:09:22;19.10;99.90
14144;DHT22;7152;48.348;10.980;2022-08-25T07:11:47;19.20;99.90
14144;DHT22;7152;48.348;10.980;2022-08-25T07:14:14;19.30;99.90
14144;DHT22;7152;48.348;10.980;2022-08-25T07:16:41;19.30;99.90
14144;DHT22;7152;48.348;10.980;2022-08-25T07:19:08;19.50;99.90
14144;DHT22;7152;48.348;10.980;2022-08-25T07:21:36;19.50;99.90
14144;DHT22;7152;48.348;10.980;2022-08-25T07:24:11;19.60;99.90
14144;DHT22;7152;48.348;10.980;2022-08-25T07:26:38;19.70;99.90
14144;DHT22;7152;48.348;10.980;2022-08-25T07:29:08;19.80;99.90
14144;DHT22;7152;48.348;10.980;2022-08-25T07:31:34;19.90;99.90
14144;DHT22;7152;48.348;10.980;2022-08-25T07:33:59;20.00;99.90
14144;DHT22;7152;48.348;10.980;2022-08-25T07:36:44;20.10;99.90
14144;DHT22;7152;48.348;10.980;2022-08-25T07:39:10;20.20;99.90
14144;DHT22;7152;48.348;10.980;2022-08-25T07:41:38;20.30;99.90
14144;DHT22;7152;48.348;10.980;2022-08-25T07:44:04;20.40;99.90
14144;DHT22;7152;48.348;10.980;2022-08-25T07:46:30;20.50;99.90
14144;DHT22;7152;48.348;10.980;2022-08-25T07:48:56;20.60;99.90
14144;DHT22;7152;48.348;10.980;2022-08-25T07:51:22;20.70;99.90
14144;DHT22;7152;48.348;10.980;2022-08-25T07:53:48;20.80;99.90
14144;DHT22;7152;48.348;10.980;2022-08-25T07:56:15;20.90;99.90
14144;DHT22;7152;48.348;10.980;2022-08-25T07:58:42;21.00;99.90
14144;DHT22;7152;48.348;10.980;2022-08-25T08:01:16;21.00;99.90
14144;DHT22;7152;48.348;10.980;2022-08-25T08:03:43;21.10;99.90
14144;DHT22;7152;48.348;10.980;2022-08-25T08:06:14;21.10;99.90
14144;DHT22;7152;48.348;10.980;2022-08-25T08:08:43;21.20;99.90
14144;DHT22;7152;48.348;10.980;2022-08-25T08:11:23;21.20;99.90
14144;DHT22;7152;48.348;10.980;2022-08-25T08:13:50;21.30;99.90
14144;DHT22;7152;48.348;10.980;2022-08-25T08:16:18;21.40;99.90
14144;DHT22;7152;48.348;10.980;2022-08-25T08:18:44;21.50;99.90
14144;DHT22;7152;48.348;10.980;2022-08-25T08:21:16;21.50;99.90
14144;DHT22;7152;48.348;10.980;2022-08-25T08:23:42;21.60;99.90
14144;DHT22;7152;48.348;10.980;2022-08-25T08:26:08;21.70;99.90
14144;DHT22;7152;48.348;10.980;2022-08-25T08:28:33;21.70;99.90
14144;DHT22;7152;48.348;10.980;2022-08-25T08:30:59;21.80;99.90
14144;DHT22;7152;48.348;10.980;2022-08-25T08:33:25;21.90;99.90
14144;DHT22;7152;48.348;10.980;2022-08-25T08:35:59;21.90;99.90
14144;DHT22;7152;48.348;10.980;2022-08-25T08:38:25;22.00;99.90
14144;DHT22;7152;48.348;10.980;2022-08-25T08:41:02;22.00;99.90
14144;DHT22;7152;48.348;10.980;2022-08-25T08:44:14;22.10;99.90
14144;DHT22;7152;48.348;10.980;2022-08-25T08:49:44;22.30;99.90
14144;DHT22;7152;48.348;10.980;2022-08-25T08:52:15;22.40;99.90
14144;DHT22;7152;48.348;10.980;2022-08-25T08:54:42;22.50;99.90
14144;DHT22;7152;48.348;10.980;2022-08-25T08:57:16;22.60;99.90
14144;DHT22;7152;48.348;10.980;2022-08-25T08:59:53;22.70;99.90
14144;DHT22;7152;48.348;10.980;2022-08-25T09:02:27;22.80;99.90
14144;DHT22;7152;48.348;10.980;2022-08-25T09:04:58;22.90;99.90
14144;DHT22;7152;48.348;10.980;2022-08-25T09:07:30;23.00;99.90
14144;DHT22;7152;48.348;10.980;2022-08-25T09:09:58;23.10;99.90
14144;DHT22;7152;48.348;10.980;2022-08-25T09:12:39;23.20;99.90
14144;DHT22;7152;48.348;10.980;2022-08-25T09:21:14;23.80;99.90
14144;DHT22;7152;48.348;10.980;2022-08-25T09:31:36;23.80;99.90
14144;DHT22;7152;48.348;10.980;2022-08-25T09:34:11;23.80;99.90
14144;DHT22;7152;48.348;10.980;2022-08-25T09:36:37;23.90;99.90
14144;DHT22;7152;48.348;10.980;2022-08-25T09:39:03;24.00;99.90
14144;DHT22;7152;48.348;10.980;2022-08-25T09:41:51;24.10;99.90
14144;DHT22;7152;48.348;10.980;2022-08-25T09:44:32;24.20;99.90
14144;DHT22;7152;48.348;10.980;2022-08-25T09:47:25;24.40;99.90
14144;DHT22;7152;48.348;10.980;2022-08-25T09:50:00;24.50;99.90
14144;DHT22;7152;48.348;10.980;2022-08-25T09:52:37;24.60;99.90
14144;DHT22;7152;48.348;10.980;2022-08-25T09:57:49;24.90;99.90
14144;DHT22;7152;48.348;10.980;2022-08-25T10:03:06;25.20;99.90
14144;DHT22;7152;48.348;10.980;2022-08-25T10:05:36;25.30;99.90
14144;DHT22;7152;48.348;10.980;2022-08-25T10:08:13;25.40;99.90
14144;DHT22;7152;48.348;10.980;2022-08-25T10:10:55;25.50;99.90
14144;DHT22;7152;48.348;10.980;2022-08-25T10:13:50;25.70;99.90
14144;DHT22;7152;48.348;10.980;2022-08-25T10:16:30;25.80;99.90
14144;DHT22;7152;48.348;10.980;2022-08-25T10:19:24;25.90;99.90
14144;DHT22;7152;48.348;10.980;2022-08-25T10:22:09;26.10;99.90
14144;DHT22;7152;48.348;10.980;2022-08-25T10:24:36;26.20;99.90
14144;DHT22;7152;48.348;10.980;2022-08-25T10:35:25;26.90;99.90
14144;DHT22;7152;48.348;10.980;2022-08-25T10:43:52;27.40;99.90
14144;DHT22;7152;48.348;10.980;2022-08-25T10:46:38;27.50;99.90
14144;DHT22;7152;48.348;10.980;2022-08-25T10:49:19;27.80;99.90
14144;DHT22;7152;48.348;10.980;2022-08-25T10:51:56;28.00;99.90
14144;DHT22;7152;48.348;10.980;2022-08-25T10:57:38;28.40;99.90
14144;DHT22;7152;48.348;10.980;2022-08-25T11:00:14;28.70;99.90
14144;DHT22;7152;48.348;10.980;2022-08-25T11:05:56;29.20;99.90
14144;DHT22;7152;48.348;10.980;2022-08-25T11:09:04;29.40;99.90
14144;DHT22;7152;48.348;10.980;2022-08-25T11:14:01;29.90;99.90
14144;DHT22;7152;48.348;10.980;2022-08-25T11:16:45;30.10;99.90
14144;DHT22;7152;48.348;10.980;2022-08-25T11:19:30;30.40;99.90
14144;DHT22;7152;48.348;10.980;2022-08-25T11:22:46;30.60;99.90
14144;DHT22;7152;48.348;10.980;2022-08-25T11:25:37;30.70;99.90
14144;DHT22;7152;48.348;10.980;2022-08-25T11:28:17;31.30;99.90
14144;DHT22;7152;48.348;10.980;2022-08-25T11:30:46;31.60;99.90
14144;DHT22;7152;48.348;10.980;2022-08-25T11:33:16;31.80;99.90
14144;DHT22;7152;48.348;10.980;2022-08-25T11:35:55;32.10;99.90
14144;DHT22;7152;48.348;10.980;2022-08-25T11:43:39;33.40;99.90
14144;DHT22;7152;48.348;10.980;2022-08-25T11:46:38;33.70;99.90
14144;DHT22;7152;48.348;10.980;2022-08-25T11:51:59;33.60;99.90
14144;DHT22;7152;48.348;10.980;2022-08-25T11:54:33;33.00;99.90
14144;DHT22;7152;48.348;10.980;2022-08-25T11:57:18;32.80;99.90
14144;DHT22;7152;48.348;10.980;2022-08-25T12:04:59;33.20;99.30
14144;DHT22;7152;48.348;10.980;2022-08-25T12:07:28;33.50;99.20
14144;DHT22;7152;48.348;10.980;2022-08-25T12:18:17;35.00;97.60
14144;DHT22;7152;48.348;10.980;2022-08-25T12:23:28;35.80;95.70
14144;DHT22;7152;48.348;10.980;2022-08-25T12:25:59;36.40;95.30
14144;DHT22;7152;48.348;10.980;2022-08-25T12:28:30;36.40;94.20
14144;DHT22;7152;48.348;10.980;2022-08-25T12:31:04;36.30;93.60
14144;DHT22;7152;48.348;10.980;2022-08-25T12:36:02;36.30;92.90
14144;DHT22;7152;48.348;10.980;2022-08-25T12:38:33;36.30;92.10
14144;DHT22;7152;48.348;10.980;2022-08-25T12:41:21;36.50;91.30
14144;DHT22;7152;48.348;10.980;2022-08-25T12:43:49;36.80;91.30
14144;DHT22;7152;48.348;10.980;2022-08-25T12:52:06;37.50;85.30
14144;DHT22;7152;48.348;10.980;2022-08-25T12:59:49;37.00;84.60
14144;DHT22;7152;48.348;10.980;2022-08-25T13:10:56;38.00;82.90
14144;DHT22;7152;48.348;10.980;2022-08-25T13:16:06;38.30;81.00
14144;DHT22;7152;48.348;10.980;2022-08-25T13:18:36;38.50;79.60
14144;DHT22;7152;48.348;10.980;2022-08-25T13:21:15;38.90;79.80
14144;DHT22;7152;48.348;10.980;2022-08-25T13:23:44;39.10;79.10
14144;DHT22;7152;48.348;10.980;2022-08-25T13:26:36;39.50;78.70
14144;DHT22;7152;48.348;10.980;2022-08-25T13:31:34;39.90;75.00
14144;DHT22;7152;48.348;10.980;2022-08-25T13:34:05;39.90;74.50
14144;DHT22;7152;48.348;10.980;2022-08-25T13:36:41;39.90;74.20
14144;DHT22;7152;48.348;10.980;2022-08-25T13:39:27;40.20;72.40
14144;DHT22;7152;48.348;10.980;2022-08-25T13:41:55;40.20;72.50
14144;DHT22;7152;48.348;10.980;2022-08-25T13:44:24;40.60;71.70
14144;DHT22;7152;48.348;10.980;2022-08-25T13:49:31;40.40;68.50
14144;DHT22;7152;48.348;10.980;2022-08-25T13:51:57;40.50;67.80
14144;DHT22;7152;48.348;10.980;2022-08-25T13:54:29;40.80;67.40
14144;DHT22;7152;48.348;10.980;2022-08-25T13:57:28;40.80;67.00
14144;DHT22;7152;48.348;10.980;2022-08-25T13:59:59;40.60;66.60
14144;DHT22;7152;48.348;10.980;2022-08-25T14:02:49;40.60;66.90
14144;DHT22;7152;48.348;10.980;2022-08-25T14:05:38;40.90;66.10
14144;DHT22;7152;48.348;10.980;2022-08-25T14:08:07;41.20;65.60
14144;DHT22;7152;48.348;10.980;2022-08-25T14:10:41;41.60;65.80
14144;DHT22;7152;48.348;10.980;2022-08-25T14:13:14;41.70;65.50
14144;DHT22;7152;48.348;10.980;2022-08-25T14:15:44;41.70;65.90
14144;DHT22;7152;48.348;10.980;2022-08-25T14:18:17;41.90;65.50
14144;DHT22;7152;48.348;10.980;2022-08-25T14:20:48;42.10;65.20
14144;DHT22;7152;48.348;10.980;2022-08-25T14:23:18;42.30;64.10
14144;DHT22;7152;48.348;10.980;2022-08-25T14:25:44;42.10;63.50
14144;DHT22;7152;48.348;10.980;2022-08-25T14:28:13;42.10;63.80
14144;DHT22;7152;48.348;10.980;2022-08-25T14:30:47;42.30;63.20
14144;DHT22;7152;48.348;10.980;2022-08-25T14:33:15;42.40;62.70
14144;DHT22;7152;48.348;10.980;2022-08-25T14:35:45;42.60;62.20
14144;DHT22;7152;48.348;10.980;2022-08-25T14:38:11;41.50;62.60
14144;DHT22;7152;48.348;10.980;2022-08-25T14:40:37;41.00;62.40
14144;DHT22;7152;48.348;10.980;2022-08-25T14:43:04;40.80;62.80
14144;DHT22;7152;48.348;10.980;2022-08-25T14:45:30;41.00;62.90
14144;DHT22;7152;48.348;10.980;2022-08-25T14:48:02;41.50;62.70
14144;DHT22;7152;48.348;10.980;2022-08-25T14:50:28;41.90;61.70
14144;DHT22;7152;48.348;10.980;2022-08-25T14:52:54;42.20;62.00
14144;DHT22;7152;48.348;10.980;2022-08-25T14:55:20;42.30;61.00
14144;DHT22;7152;48.348;10.980;2022-08-25T14:57:45;42.60;60.40
14144;DHT22;7152;48.348;10.980;2022-08-25T15:00:11;42.40;59.40
14144;DHT22;7152;48.348;10.980;2022-08-25T15:02:40;42.00;59.80
14144;DHT22;7152;48.348;10.980;2022-08-25T15:05:07;42.20;59.70
14144;DHT22;7152;48.348;10.980;2022-08-25T15:07:36;42.20;60.60
14144;DHT22;7152;48.348;10.980;2022-08-25T15:10:21;42.10;60.00
14144;DHT22;7152;48.348;10.980;2022-08-25T15:12:47;41.80;59.90
14144;DHT22;7152;48.348;10.980;2022-08-25T15:15:13;41.90;60.00
14144;DHT22;7152;48.348;10.980;2022-08-25T15:17:40;41.90;60.10
14144;DHT22;7152;48.348;10.980;2022-08-25T15:20:06;41.90;60.10
14144;DHT22;7152;48.348;10.980;2022-08-25T15:22:32;41.90;60.10
14144;DHT22;7152;48.348;10.980;2022-08-25T15:25:03;41.50;59.50
14144;DHT22;7152;48.348;10.980;2022-08-25T15:27:29;41.10;58.40
14144;DHT22;7152;48.348;10.980;2022-08-25T15:29:55;40.50;58.50
14144;DHT22;7152;48.348;10.980;2022-08-25T15:32:21;40.40;58.50
14144;DHT22;7152;48.348;10.980;2022-08-25T15:34:49;40.30;59.00
14144;DHT22;7152;48.348;10.980;2022-08-25T15:37:15;40.00;59.40
14144;DHT22;7152;48.348;10.980;2022-08-25T15:39:43;40.00;60.80
14144;DHT22;7152;48.348;10.980;2022-08-25T15:42:09;39.80;60.60
14144;DHT22;7152;48.348;10.980;2022-08-25T15:44:39;39.40;60.60
14144;DHT22;7152;48.348;10.980;2022-08-25T15:47:05;39.40;61.30
14144;DHT22;7152;48.348;10.980;2022-08-25T15:49:30;38.90;62.10
14144;DHT22;7152;48.348;10.980;2022-08-25T15:51:56;38.40;62.80
14144;DHT22;7152;48.348;10.980;2022-08-25T15:54:23;37.90;63.50
14144;DHT22;7152;48.348;10.980;2022-08-25T15:56:49;37.40;64.10
14144;DHT22;7152;48.348;10.980;2022-08-25T15:59:15;36.90;64.60
14144;DHT22;7152;48.348;10.980;2022-08-25T16:01:41;36.30;65.30
14144;DHT22;7152;48.348;10.980;2022-08-25T16:04:09;35.60;66.10
14144;DHT22;7152;48.348;10.980;2022-08-25T16:06:35;35.20;66.70
14144;DHT22;7152;48.348;10.980;2022-08-25T16:09:00;34.80;67.80
14144;DHT22;7152;48.348;10.980;2022-08-25T16:11:29;34.20;68.70
14144;DHT22;7152;48.348;10.980;2022-08-25T16:13:56;33.80;68.90
14144;DHT22;7152;48.348;10.980;2022-08-25T16:16:24;33.40;69.30
14144;DHT22;7152;48.348;10.980;2022-08-25T16:18:51;33.10;70.40
14144;DHT22;7152;48.348;10.980;2022-08-25T16:21:23;32.90;71.50
14144;DHT22;7152;48.348;10.980;2022-08-25T16:23:55;32.50;72.40
14144;DHT22;7152;48.348;10.980;2022-08-25T16:26:24;32.20;72.30
14144;DHT22;7152;48.348;10.980;2022-08-25T16:28:50;31.90;72.90
14144;DHT22;7152;48.348;10.980;2022-08-25T16:31:16;31.70;73.50
14144;DHT22;7152;48.348;10.980;2022-08-25T16:33:42;31.50;74.00
14144;DHT22;7152;48.348;10.980;2022-08-25T16:36:12;31.50;75.10
14144;DHT22;7152;48.348;10.980;2022-08-25T16:38:40;31.30;75.20
14144;DHT22;7152;48.348;10.980;2022-08-25T16:41:07;31.30;75.40
14144;DHT22;7152;48.348;10.980;2022-08-25T16:43:33;31.10;75.30
14144;DHT22;7152;48.348;10.980;2022-08-25T16:46:00;30.90;75.60
14144;DHT22;7152;48.348;10.980;2022-08-25T16:48:28;30.80;75.70
14144;DHT22;7152;48.348;10.980;2022-08-25T16:50:56;30.70;76.10
14144;DHT22;7152;48.348;10.980;2022-08-25T16:53:22;30.60;76.60
14144;DHT22;7152;48.348;10.980;2022-08-25T16:56:06;30.50;76.30
14144;DHT22;7152;48.348;10.980;2022-08-25T16:58:33;30.40;77.00
14144;DHT22;7152;48.348;10.980;2022-08-25T17:01:10;30.30;77.00
14144;DHT22;7152;48.348;10.980;2022-08-25T17:03:40;30.10;77.50
14144;DHT22;7152;48.348;10.980;2022-08-25T17:06:07;29.90;77.20
14144;DHT22;7152;48.348;10.980;2022-08-25T17:08:33;29.80;77.50
14144;DHT22;7152;48.348;10.980;2022-08-25T17:11:09;29.60;78.30
14144;DHT22;7152;48.348;10.980;2022-08-25T17:13:41;29.50;78.20
14144;DHT22;7152;48.348;10.980;2022-08-25T17:16:07;29.40;78.30
14144;DHT22;7152;48.348;10.980;2022-08-25T17:18:33;29.40;79.10
14144;DHT22;7152;48.348;10.980;2022-08-25T17:21:01;29.30;79.50
14144;DHT22;7152;48.348;10.980;2022-08-25T17:23:28;29.20;79.40
14144;DHT22;7152;48.348;10.980;2022-08-25T17:25:53;29.10;79.90
14144;DHT22;7152;48.348;10.980;2022-08-25T17:28:19;29.00;80.10
14144;DHT22;7152;48.348;10.980;2022-08-25T17:30:46;28.80;80.10
14144;DHT22;7152;48.348;10.980;2022-08-25T17:33:12;28.70;80.20